Time;durP1;ratioP1;P1;durP2;ratioP2;P2;SDS_P1;SDS_P2;PMS_P1;PMS_P2;Temp;Humidity;BMP_temperature;BMP_pressure;BME280_temperature;BME280_humidity;BME280_pressure;Samples;Min_cycle;Max_cycle;Signal;HPM_P1;HPM_P2
2021/05/31 00:01:55;;;;;;;;;;;6.20;99.90;;;;;;8326211;28;19916;-62
2021/05/31 00:05:55;;;;;;;;;;;5.90;99.90;;;;;;8351568;28;19923;-62
2021/05/31 00:09:56;;;;;;;;;;;5.80;99.90;;;;;;8357193;28;19908;-62
2021/05/31 00:13:57;;;;;;;;;;;5.80;99.90;;;;;;8357905;28;20032;-62
2021/05/31 00:17:58;;;;;;;;;;;5.50;99.90;;;;;;8358571;28;19916;-62
2021/05/31 00:21:58;;;;;;;;;;;5.50;99.90;;;;;;8358089;28;19912;-62
2021/05/31 00:25:59;;;;;;;;;;;5.40;99.90;;;;;;8357446;28;19999;-62
2021/05/31 00:29:59;;;;;;;;;;;5.30;99.90;;;;;;8357789;28;19909;-62
2021/05/31 00:34:00;;;;;;;;;;;5.30;99.90;;;;;;8345950;28;19913;-62
2021/05/31 00:38:01;;;;;;;;;;;5.20;99.90;;;;;;8307651;28;19984;-62
2021/05/31 00:42:01;;;;;;;;;;;5.30;99.90;;;;;;8325227;28;19996;-63
2021/05/31 00:46:03;;;;;;;;;;;5.30;99.90;;;;;;8324988;28;19913;-63
2021/05/31 00:50:03;;;;;;;;;;;5.50;99.90;;;;;;8324733;28;20017;-62
2021/05/31 00:54:04;;;;;;;;;;;5.40;99.90;;;;;;8324738;28;19913;-62
2021/05/31 00:58:04;;;;;;;;;;;5.40;99.90;;;;;;8307551;28;19910;-62
2021/05/31 01:02:05;;;;;;;;;;;5.20;99.90;;;;;;8324979;28;19919;-62
2021/05/31 01:06:07;;;;;;;;;;;5.00;99.90;;;;;;8324599;28;20344;-62
2021/05/31 01:10:25;;;;;;;;;;;4.90;99.90;;;;;;8324377;28;19909;-62
2021/05/31 01:14:32;;;;;;;;;;;4.90;99.90;;;;;;8324657;28;19920;-62
2021/05/31 01:18:40;;;;;;;;;;;5.00;99.90;;;;;;8324519;28;19909;-62
2021/05/31 01:22:41;;;;;;;;;;;4.90;99.90;;;;;;8324730;28;19941;-62
2021/05/31 01:26:53;;;;;;;;;;;5.00;99.90;;;;;;8328900;28;20286;-62
2021/05/31 01:30:55;;;;;;;;;;;5.00;99.90;;;;;;8326455;28;19959;-62
2021/05/31 01:34:57;;;;;;;;;;;5.00;99.90;;;;;;8345233;28;19913;-62
2021/05/31 01:38:58;;;;;;;;;;;4.80;99.90;;;;;;8362584;28;19972;-62
2021/05/31 01:43:00;;;;;;;;;;;4.70;99.90;;;;;;8363332;28;19908;-62
2021/05/31 01:47:01;;;;;;;;;;;4.60;99.90;;;;;;8363714;28;19919;-62
2021/05/31 01:51:02;;;;;;;;;;;4.50;99.90;;;;;;8362424;28;20371;-62
2021/05/31 01:55:03;;;;;;;;;;;4.40;99.90;;;;;;8362016;28;20386;-62
2021/05/31 01:59:04;;;;;;;;;;;4.50;99.90;;;;;;8344236;28;19916;-62
2021/05/31 02:03:05;;;;;;;;;;;4.50;99.90;;;;;;8356945;28;20429;-62
2021/05/31 02:07:05;;;;;;;;;;;4.50;99.90;;;;;;8329890;28;19909;-62
2021/05/31 02:11:12;;;;;;;;;;;4.40;99.90;;;;;;8329048;28;19909;-62
2021/05/31 02:15:14;;;;;;;;;;;4.20;99.90;;;;;;8328904;28;19913;-62
2021/05/31 02:19:17;;;;;;;;;;;4.20;99.90;;;;;;8328817;28;19916;-62
2021/05/31 02:23:18;;;;;;;;;;;4.30;99.90;;;;;;8329138;28;19909;-62
2021/05/31 02:27:18;;;;;;;;;;;4.30;99.90;;;;;;8328683;28;19909;-62
2021/05/31 02:31:19;;;;;;;;;;;4.30;99.90;;;;;;8328623;28;19913;-62
2021/05/31 02:35:20;;;;;;;;;;;4.20;99.90;;;;;;8327082;28;19913;-62
2021/05/31 02:39:21;;;;;;;;;;;4.10;99.90;;;;;;8327729;28;19909;-62
2021/05/31 02:43:22;;;;;;;;;;;4.10;99.90;;;;;;8310974;28;19975;-62
2021/05/31 02:47:22;;;;;;;;;;;4.00;99.90;;;;;;8327254;28;19909;-62
2021/05/31 02:51:22;;;;;;;;;;;4.10;99.90;;;;;;8309070;28;19949;-62
2021/05/31 02:55:24;;;;;;;;;;;4.20;99.90;;;;;;8328074;28;20360;-62
2021/05/31 02:59:24;;;;;;;;;;;4.00;99.90;;;;;;8327534;28;20299;-62
2021/05/31 03:03:25;;;;;;;;;;;3.90;99.90;;;;;;8361455;22;19932;-66
2021/05/31 03:07:25;;;;;;;;;;;3.80;99.90;;;;;;8393812;28;19908;-65
2021/05/31 03:11:25;;;;;;;;;;;3.70;99.90;;;;;;8392456;28;20007;-65
2021/05/31 03:15:26;;;;;;;;;;;3.60;99.90;;;;;;8394039;28;19923;-65
2021/05/31 03:19:27;;;;;;;;;;;3.60;99.90;;;;;;8393712;28;20003;-66
2021/05/31 03:23:27;;;;;;;;;;;3.60;99.90;;;;;;8392121;28;19908;-66
2021/05/31 03:27:28;;;;;;;;;;;3.50;99.90;;;;;;8393506;28;19908;-66
2021/05/31 03:31:28;;;;;;;;;;;3.40;99.90;;;;;;8392596;28;20262;-66
2021/05/31 03:35:29;;;;;;;;;;;3.40;99.90;;;;;;8393076;28;19912;-65
2021/05/31 03:39:29;;;;;;;;;;;3.40;99.90;;;;;;8393098;28;19908;-66
2021/05/31 03:43:30;;;;;;;;;;;3.50;99.90;;;;;;8392479;28;19908;-66
2021/05/31 03:47:30;;;;;;;;;;;3.50;99.90;;;;;;8390740;28;19913;-65
2021/05/31 03:51:31;;;;;;;;;;;3.50;99.90;;;;;;8392407;28;20176;-65
2021/05/31 03:55:31;;;;;;;;;;;3.60;99.90;;;;;;8392285;28;20352;-66
2021/05/31 03:59:32;;;;;;;;;;;4.00;99.90;;;;;;8390817;28;19908;-65
2021/05/31 04:03:34;;;;;;;;;;;4.20;99.90;;;;;;8392013;28;19917;-66
2021/05/31 04:12:04;;;;;;;;;;;4.30;99.90;;;;;;8339070;28;19916;-66
2021/05/31 04:16:04;;;;;;;;;;;4.40;99.90;;;;;;8357983;28;19913;-66
2021/05/31 04:20:05;;;;;;;;;;;4.50;99.90;;;;;;8365489;28;19935;-66
2021/05/31 04:24:06;;;;;;;;;;;4.70;99.90;;;;;;8372165;28;19919;-66
2021/05/31 04:28:07;;;;;;;;;;;5.00;99.90;;;;;;8388711;28;19913;-66
2021/05/31 04:32:07;;;;;;;;;;;5.20;99.90;;;;;;8389535;28;19942;-66
2021/05/31 04:36:08;;;;;;;;;;;5.50;99.90;;;;;;8389781;28;20382;-66
2021/05/31 04:40:09;;;;;;;;;;;5.70;99.90;;;;;;8389408;28;19916;-66
2021/05/31 04:44:09;;;;;;;;;;;5.80;99.90;;;;;;8391159;28;19939;-66
2021/05/31 04:48:10;;;;;;;;;;;6.10;99.90;;;;;;8387318;28;19913;-66
2021/05/31 04:52:10;;;;;;;;;;;6.50;99.90;;;;;;8389588;28;20290;-65
2021/05/31 04:56:13;;;;;;;;;;;7.80;99.90;;;;;;8391745;28;19912;-65
2021/05/31 05:00:15;;;;;;;;;;;8.90;99.90;;;;;;8392528;28;20366;-65
2021/05/31 05:04:15;;;;;;;;;;;9.60;99.90;;;;;;8389660;28;20011;-65
2021/05/31 05:08:16;;;;;;;;;;;9.90;99.90;;;;;;8368140;28;20382;-65
2021/05/31 05:12:17;;;;;;;;;;;10.20;99.90;;;;;;8364579;28;19916;-64
2021/05/31 05:16:19;;;;;;;;;;;10.40;99.90;;;;;;8369753;28;19916;-74
2021/05/31 05:20:20;;;;;;;;;;;10.70;99.90;;;;;;8381117;28;19913;-73
2021/05/31 05:24:21;;;;;;;;;;;11.00;99.90;;;;;;8374313;28;20124;-72
2021/05/31 05:28:21;;;;;;;;;;;11.20;99.90;;;;;;8380835;28;19917;-72
2021/05/31 05:32:22;;;;;;;;;;;11.60;99.90;;;;;;8394124;28;20586;-66
2021/05/31 05:36:33;;;;;;;;;;;11.70;99.90;;;;;;8396602;28;19919;-65
2021/05/31 05:41:00;;;;;;;;;;;11.60;99.90;;;;;;8379515;28;20401;-66
2021/05/31 05:49:02;;;;;;;;;;;11.40;99.90;;;;;;8384210;28;19999;-66
2021/05/31 05:53:03;;;;;;;;;;;11.40;99.90;;;;;;8361637;28;19912;-65
2021/05/31 05:57:04;;;;;;;;;;;11.90;99.90;;;;;;8371089;28;19924;-65
2021/05/31 06:01:06;;;;;;;;;;;12.30;99.90;;;;;;8395783;28;20363;-66
2021/05/31 06:05:07;;;;;;;;;;;12.70;99.90;;;;;;8395108;28;20306;-65
2021/05/31 06:09:08;;;;;;;;;;;12.70;99.90;;;;;;8395615;28;19913;-66
2021/05/31 06:13:09;;;;;;;;;;;13.00;99.90;;;;;;8367295;28;19917;-65
2021/05/31 06:17:09;;;;;;;;;;;13.20;99.90;;;;;;8373894;28;19932;-66
2021/05/31 06:21:10;;;;;;;;;;;13.30;99.90;;;;;;8389695;28;19916;-65
2021/05/31 06:25:11;;;;;;;;;;;13.40;99.90;;;;;;8388905;28;20339;-66
2021/05/31 06:29:11;;;;;;;;;;;13.50;99.90;;;;;;8393535;28;20374;-65
2021/05/31 06:33:12;;;;;;;;;;;13.60;99.90;;;;;;8391825;28;19987;-65
2021/05/31 06:37:12;;;;;;;;;;;13.60;99.90;;;;;;8373578;28;19958;-66
2021/05/31 06:41:13;;;;;;;;;;;13.60;99.90;;;;;;8380655;28;19920;-66
2021/05/31 06:45:16;;;;;;;;;;;13.60;99.90;;;;;;8391567;28;19920;-66
2021/05/31 06:49:16;;;;;;;;;;;13.80;99.90;;;;;;8375851;28;19912;-65
2021/05/31 06:53:18;;;;;;;;;;;13.90;99.90;;;;;;8386449;28;20299;-65
2021/05/31 06:57:18;;;;;;;;;;;14.10;99.90;;;;;;8361112;28;19912;-66
2021/05/31 07:01:19;;;;;;;;;;;14.00;99.90;;;;;;8359344;28;19915;-66
2021/05/31 07:05:20;;;;;;;;;;;14.30;99.90;;;;;;8370656;28;20065;-66
2021/05/31 07:09:20;;;;;;;;;;;14.30;99.90;;;;;;8383141;28;19995;-66
2021/05/31 07:13:21;;;;;;;;;;;14.20;99.90;;;;;;8379797;28;20074;-65
2021/05/31 07:17:21;;;;;;;;;;;14.50;99.90;;;;;;8373646;28;20003;-65
2021/05/31 07:21:22;;;;;;;;;;;14.50;99.90;;;;;;8380141;28;19923;-65
2021/05/31 07:25:22;;;;;;;;;;;14.80;99.90;;;;;;8373726;28;20378;-65
2021/05/31 07:29:23;;;;;;;;;;;15.10;99.90;;;;;;8371146;28;19924;-65
2021/05/31 07:33:23;;;;;;;;;;;15.30;99.90;;;;;;8373775;28;19978;-66
2021/05/31 07:37:24;;;;;;;;;;;15.60;99.90;;;;;;8373753;28;19924;-65
2021/05/31 07:41:24;;;;;;;;;;;15.80;99.90;;;;;;8393159;28;19908;-65
2021/05/31 07:45:25;;;;;;;;;;;15.90;99.90;;;;;;8392250;28;19916;-66
2021/05/31 07:49:26;;;;;;;;;;;15.80;99.90;;;;;;8391016;28;19909;-65
2021/05/31 07:53:26;;;;;;;;;;;16.00;99.90;;;;;;8365874;28;19919;-65
2021/05/31 07:57:27;;;;;;;;;;;15.50;99.90;;;;;;8357919;28;19988;-64
2021/05/31 08:01:27;;;;;;;;;;;15.90;99.90;;;;;;8364098;28;19913;-65
2021/05/31 08:05:28;;;;;;;;;;;15.90;98.00;;;;;;8371876;28;19923;-66
2021/05/31 08:09:29;;;;;;;;;;;16.00;99.90;;;;;;8373149;28;19916;-66
2021/05/31 08:13:29;;;;;;;;;;;15.90;97.80;;;;;;8391602;28;19966;-65
2021/05/31 08:17:30;;;;;;;;;;;15.90;97.90;;;;;;8382452;28;19917;-66
2021/05/31 08:21:30;;;;;;;;;;;16.10;98.90;;;;;;8358385;28;19920;-66
2021/05/31 08:25:31;;;;;;;;;;;16.40;96.90;;;;;;8383731;28;19963;-66
2021/05/31 08:29:31;;;;;;;;;;;16.40;96.80;;;;;;8390861;28;19908;-66
2021/05/31 08:33:32;;;;;;;;;;;16.40;94.10;;;;;;8383678;28;19921;-66
2021/05/31 08:37:32;;;;;;;;;;;16.60;99.90;;;;;;8372514;28;19923;-66
2021/05/31 08:41:33;;;;;;;;;;;17.00;99.90;;;;;;8370772;28;19920;-66
2021/05/31 08:45:37;;;;;;;;;;;17.40;99.90;;;;;;8381010;28;20007;-66
2021/05/31 08:49:37;;;;;;;;;;;17.50;99.90;;;;;;8389588;28;20011;-67
2021/05/31 08:53:41;;;;;;;;;;;17.60;99.90;;;;;;8392902;28;19916;-67
2021/05/31 08:57:42;;;;;;;;;;;17.70;99.90;;;;;;8394667;28;19955;-66
2021/05/31 09:01:43;;;;;;;;;;;17.90;99.90;;;;;;8396225;28;20488;-66
2021/05/31 09:05:44;;;;;;;;;;;18.00;99.90;;;;;;8373955;22;19952;-64
2021/05/31 09:09:46;;;;;;;;;;;18.10;99.90;;;;;;8345792;28;19920;-64
2021/05/31 09:13:47;;;;;;;;;;;18.30;98.40;;;;;;8329169;28;19967;-63
2021/05/31 09:17:48;;;;;;;;;;;18.40;95.60;;;;;;8329867;28;20529;-64
2021/05/31 09:21:49;;;;;;;;;;;18.00;95.30;;;;;;8333445;28;20008;-65
2021/05/31 09:25:49;;;;;;;;;;;18.20;94.70;;;;;;8312965;28;19917;-64
2021/05/31 09:29:54;;;;;;;;;;;18.40;96.50;;;;;;8329001;28;19921;-64
2021/05/31 09:33:55;;;;;;;;;;;18.30;94.10;;;;;;8311050;28;19909;-64
2021/05/31 09:38:00;;;;;;;;;;;18.30;93.50;;;;;;8329492;28;19924;-64
2021/05/31 09:42:06;;;;;;;;;;;18.40;93.60;;;;;;8330039;28;19913;-65
2021/05/31 09:46:07;;;;;;;;;;;18.70;94.70;;;;;;8335967;28;19916;-64
2021/05/31 09:50:08;;;;;;;;;;;18.80;94.50;;;;;;8322285;28;20406;-64
2021/05/31 09:54:09;;;;;;;;;;;18.10;90.10;;;;;;8325674;28;19953;-63
2021/05/31 09:58:10;;;;;;;;;;;18.10;92.90;;;;;;8327942;28;20307;-64
2021/05/31 10:02:15;;;;;;;;;;;18.10;92.30;;;;;;8329852;28;20195;-63
2021/05/31 10:06:22;;;;;;;;;;;18.10;91.50;;;;;;8311584;28;19924;-63
2021/05/31 10:10:23;;;;;;;;;;;18.10;91.60;;;;;;8306906;28;19913;-64
2021/05/31 10:14:23;;;;;;;;;;;18.40;93.30;;;;;;8311702;28;19929;-64
2021/05/31 10:18:25;;;;;;;;;;;18.80;86.50;;;;;;8301574;28;19909;-64
2021/05/31 10:22:25;;;;;;;;;;;18.90;90.40;;;;;;8301295;28;19960;-64
2021/05/31 10:26:28;;;;;;;;;;;19.10;87.70;;;;;;8292833;28;19921;-64
2021/05/31 10:30:38;;;;;;;;;;;19.20;84.20;;;;;;8312310;28;20007;-63
2021/05/31 10:34:46;;;;;;;;;;;19.00;84.50;;;;;;8320998;28;20261;-64
2021/05/31 10:38:48;;;;;;;;;;;19.00;86.10;;;;;;8335379;28;20676;-65
2021/05/31 10:42:50;;;;;;;;;;;19.20;83.70;;;;;;8344527;28;19920;-65
2021/05/31 10:46:50;;;;;;;;;;;19.70;84.60;;;;;;8328181;28;19978;-65
2021/05/31 10:50:58;;;;;;;;;;;20.10;86.50;;;;;;8307065;28;19913;-64
2021/05/31 10:55:08;;;;;;;;;;;20.10;80.00;;;;;;8332988;28;19923;-64
2021/05/31 10:59:09;;;;;;;;;;;19.80;81.10;;;;;;8314476;28;20437;-64
2021/05/31 11:03:12;;;;;;;;;;;20.10;82.80;;;;;;8323629;28;19913;-64
2021/05/31 11:07:13;;;;;;;;;;;20.60;77.90;;;;;;8327828;28;19960;-64
2021/05/31 11:11:22;;;;;;;;;;;20.50;77.80;;;;;;8315331;28;19917;-64
2021/05/31 11:15:33;;;;;;;;;;;20.30;74.00;;;;;;8329809;28;19983;-64
2021/05/31 11:19:35;;;;;;;;;;;20.40;77.00;;;;;;8329927;28;20019;-63
2021/05/31 11:23:36;;;;;;;;;;;20.80;81.20;;;;;;8336068;28;20214;-63
2021/05/31 11:27:38;;;;;;;;;;;21.00;74.20;;;;;;8333581;28;19913;-64
2021/05/31 11:31:39;;;;;;;;;;;22.50;76.70;;;;;;8337109;28;20350;-64
2021/05/31 11:35:39;;;;;;;;;;;23.80;59.30;;;;;;8324651;28;19960;-64
2021/05/31 11:39:40;;;;;;;;;;;25.70;61.70;;;;;;8333249;28;19913;-64
2021/05/31 11:43:48;;;;;;;;;;;28.70;50.20;;;;;;8308690;28;20343;-64
2021/05/31 11:47:58;;;;;;;;;;;29.90;45.40;;;;;;8326224;28;20284;-66
2021/05/31 11:51:59;;;;;;;;;;;29.60;44.70;;;;;;8326146;28;19957;-63
2021/05/31 11:55:59;;;;;;;;;;;28.70;41.80;;;;;;8307856;28;19921;-64
2021/05/31 12:00:01;;;;;;;;;;;27.90;47.00;;;;;;8325292;28;19909;-64
2021/05/31 12:04:02;;;;;;;;;;;27.30;50.20;;;;;;8329302;28;19913;-64
2021/05/31 12:08:09;;;;;;;;;;;26.50;48.70;;;;;;8324748;28;19909;-64
2021/05/31 12:12:10;;;;;;;;;;;26.20;54.40;;;;;;8307993;28;19914;-64
2021/05/31 12:16:12;;;;;;;;;;;26.20;52.00;;;;;;8325444;28;20070;-64
2021/05/31 12:20:12;;;;;;;;;;;26.50;52.20;;;;;;8327265;28;19920;-63
2021/05/31 12:24:13;;;;;;;;;;;25.40;53.50;;;;;;8332581;28;19965;-64
2021/05/31 12:28:14;;;;;;;;;;;24.50;56.10;;;;;;8344637;28;19917;-64
2021/05/31 12:32:16;;;;;;;;;;;25.10;54.30;;;;;;8351721;28;19913;-64
2021/05/31 12:36:16;;;;;;;;;;;25.70;53.60;;;;;;8315689;28;19964;-64
2021/05/31 12:40:18;;;;;;;;;;;25.60;49.50;;;;;;8341417;28;19909;-64
2021/05/31 12:44:20;;;;;;;;;;;26.20;50.10;;;;;;8333697;28;19920;-65
2021/05/31 12:48:21;;;;;;;;;;;29.40;47.00;;;;;;8339115;28;19937;-64
2021/05/31 12:52:23;;;;;;;;;;;31.50;43.30;;;;;;8337581;28;19913;-64
2021/05/31 12:56:27;;;;;;;;;;;31.80;40.10;;;;;;8325442;28;19925;-63
2021/05/31 13:00:30;;;;;;;;;;;34.00;36.90;;;;;;8293904;28;19914;-62
2021/05/31 13:04:30;;;;;;;;;;;36.00;34.50;;;;;;8314391;28;19917;-63
2021/05/31 13:08:40;;;;;;;;;;;36.20;31.00;;;;;;8325016;28;19956;-62
2021/05/31 13:12:50;;;;;;;;;;;35.40;32.30;;;;;;8302503;28;19924;-63
2021/05/31 13:17:00;;;;;;;;;;;37.50;30.50;;;;;;8322562;28;20003;-64
2021/05/31 13:21:03;;;;;;;;;;;38.80;29.30;;;;;;8334578;28;19913;-62
2021/05/31 13:25:05;;;;;;;;;;;38.10;29.30;;;;;;8329920;28;19962;-63
2021/05/31 13:29:07;;;;;;;;;;;39.50;28.30;;;;;;8336788;28;19920;-64
2021/05/31 13:33:10;;;;;;;;;;;39.70;27.70;;;;;;8331936;28;19913;-63
2021/05/31 13:37:11;;;;;;;;;;;41.30;25.70;;;;;;8310915;28;19929;-63
2021/05/31 13:41:12;;;;;;;;;;;40.90;26.40;;;;;;8329396;28;19916;-65
2021/05/31 13:45:12;;;;;;;;;;;41.10;23.80;;;;;;8311236;28;20000;-65
2021/05/31 13:49:15;;;;;;;;;;;39.70;26.30;;;;;;8329957;28;19924;-65
2021/05/31 13:53:16;;;;;;;;;;;40.60;25.40;;;;;;8310705;28;19920;-65
2021/05/31 13:57:16;;;;;;;;;;;41.00;24.20;;;;;;8324289;28;19925;-64
2021/05/31 14:01:17;;;;;;;;;;;41.20;24.10;;;;;;8320661;28;19916;-65
2021/05/31 14:05:17;;;;;;;;;;;39.30;24.80;;;;;;8342117;28;20287;-65
2021/05/31 14:09:18;;;;;;;;;;;39.10;26.00;;;;;;8328561;28;19921;-65
2021/05/31 14:13:19;;;;;;;;;;;40.30;24.50;;;;;;8331604;28;19999;-65
2021/05/31 14:17:20;;;;;;;;;;;40.30;24.60;;;;;;8328717;28;19944;-65
2021/05/31 14:21:20;;;;;;;;;;;41.10;24.50;;;;;;8328861;28;20345;-65
2021/05/31 14:25:22;;;;;;;;;;;40.40;24.60;;;;;;8309455;28;19944;-65
2021/05/31 14:29:23;;;;;;;;;;;40.30;24.50;;;;;;8333846;28;19986;-65
2021/05/31 14:33:23;;;;;;;;;;;38.90;25.20;;;;;;8314140;28;19967;-65
2021/05/31 14:37:24;;;;;;;;;;;37.90;26.20;;;;;;8349977;28;19920;-65
2021/05/31 14:41:25;;;;;;;;;;;37.60;26.30;;;;;;8344590;28;19914;-65
2021/05/31 14:45:27;;;;;;;;;;;34.00;26.90;;;;;;8333157;28;19948;-65
2021/05/31 14:49:27;;;;;;;;;;;33.40;28.50;;;;;;8346233;28;19913;-65
2021/05/31 14:53:28;;;;;;;;;;;34.40;29.30;;;;;;8326476;28;19975;-64
2021/05/31 14:57:29;;;;;;;;;;;33.60;28.70;;;;;;8326874;28;20004;-64
2021/05/31 15:01:29;;;;;;;;;;;32.90;28.30;;;;;;8359816;28;19912;-64
2021/05/31 15:05:30;;;;;;;;;;;35.10;27.70;;;;;;8357581;22;20026;-67
2021/05/31 15:09:30;;;;;;;;;;;35.70;27.20;;;;;;8315360;28;19943;-66
2021/05/31 15:13:31;;;;;;;;;;;32.90;28.80;;;;;;8319155;28;19917;-67
2021/05/31 15:17:31;;;;;;;;;;;33.70;30.30;;;;;;8318585;28;19928;-67
2021/05/31 15:21:32;;;;;;;;;;;36.00;28.50;;;;;;8331281;28;19914;-66
2021/05/31 15:25:32;;;;;;;;;;;36.50;26.30;;;;;;8329455;28;19921;-67
2021/05/31 15:29:33;;;;;;;;;;;35.80;26.40;;;;;;8325720;28;19921;-66
2021/05/31 15:33:34;;;;;;;;;;;33.60;27.30;;;;;;8341279;28;20411;-66
2021/05/31 15:37:34;;;;;;;;;;;32.50;30.40;;;;;;8328926;28;19917;-66
2021/05/31 15:41:35;;;;;;;;;;;33.70;27.70;;;;;;8333592;28;20003;-67
2021/05/31 15:45:36;;;;;;;;;;;36.00;27.20;;;;;;8345965;28;19913;-67
2021/05/31 15:49:36;;;;;;;;;;;37.00;24.70;;;;;;8341956;28;19940;-67
2021/05/31 15:53:38;;;;;;;;;;;34.20;27.20;;;;;;8326277;28;19909;-67
2021/05/31 15:57:38;;;;;;;;;;;36.90;26.90;;;;;;8324798;28;19917;-68
2021/05/31 16:01:42;;;;;;;;;;;38.90;25.90;;;;;;8327892;28;19913;-66
2021/05/31 16:05:42;;;;;;;;;;;39.50;23.80;;;;;;8324170;28;19928;-65
2021/05/31 16:09:43;;;;;;;;;;;36.70;25.90;;;;;;8309479;28;19913;-67
2021/05/31 16:13:44;;;;;;;;;;;35.90;27.30;;;;;;8324195;28;19914;-68
2021/05/31 16:17:45;;;;;;;;;;;37.90;26.40;;;;;;8323112;28;19986;-68
2021/05/31 16:21:45;;;;;;;;;;;39.20;24.30;;;;;;8321941;28;19913;-67
2021/05/31 16:25:46;;;;;;;;;;;40.20;24.70;;;;;;8319802;28;19929;-66
2021/05/31 16:29:47;;;;;;;;;;;40.90;24.10;;;;;;8324088;28;19913;-66
2021/05/31 16:33:47;;;;;;;;;;;41.70;23.50;;;;;;8323409;28;19917;-65
2021/05/31 16:37:48;;;;;;;;;;;40.10;23.30;;;;;;8328747;28;19980;-71
2021/05/31 16:41:50;;;;;;;;;;;39.80;25.00;;;;;;8328860;28;19921;-71
2021/05/31 16:45:50;;;;;;;;;;;40.20;24.30;;;;;;8324196;28;20349;-70
2021/05/31 16:49:51;;;;;;;;;;;41.10;24.40;;;;;;8349020;28;19964;-71
2021/05/31 16:53:52;;;;;;;;;;;41.20;23.80;;;;;;8324915;28;19979;-70
2021/05/31 16:57:53;;;;;;;;;;;40.90;23.20;;;;;;8335607;28;19917;-69
2021/05/31 17:01:54;;;;;;;;;;;39.50;24.90;;;;;;8316803;28;20790;-67
2021/05/31 17:05:54;;;;;;;;;;;40.00;24.30;;;;;;8312376;28;19918;-66
2021/05/31 17:09:59;;;;;;;;;;;36.70;26.00;;;;;;8314398;28;19920;-67
2021/05/31 17:22:38;;;;;;;;;;;31.30;30.60;;;;;;8316040;28;19971;-66
2021/05/31 17:26:39;;;;;;;;;;;28.40;37.00;;;;;;8298374;28;20368;-67
2021/05/31 17:30:51;;;;;;;;;;;27.50;37.00;;;;;;8312018;28;20017;-67
2021/05/31 17:34:51;;;;;;;;;;;27.10;37.50;;;;;;8293587;28;20022;-65
2021/05/31 17:38:52;;;;;;;;;;;27.00;38.10;;;;;;8313627;28;20274;-66
2021/05/31 17:42:53;;;;;;;;;;;26.60;38.10;;;;;;8316065;28;19913;-66
2021/05/31 17:46:54;;;;;;;;;;;25.20;41.20;;;;;;8306881;28;20358;-65
2021/05/31 17:50:55;;;;;;;;;;;23.20;43.40;;;;;;8317203;28;19960;-65
2021/05/31 17:54:55;;;;;;;;;;;22.20;46.40;;;;;;8337198;28;19967;-66
2021/05/31 17:58:56;;;;;;;;;;;22.70;46.40;;;;;;8331135;28;19917;-64
2021/05/31 18:02:58;;;;;;;;;;;23.00;45.30;;;;;;8328824;28;20505;-65
2021/05/31 18:06:59;;;;;;;;;;;24.10;43.60;;;;;;8335443;28;19920;-65
2021/05/31 18:10:59;;;;;;;;;;;25.80;41.10;;;;;;8335485;28;19917;-66
2021/05/31 18:15:01;;;;;;;;;;;24.90;41.00;;;;;;8339940;28;19994;-64
2021/05/31 18:19:02;;;;;;;;;;;;;;;;;;8330883;28;19925;-65
2021/05/31 18:23:03;;;;;;;;;;;;;;;;;;8332207;28;20429;-64
2021/05/31 18:27:04;;;;;;;;;;;20.20;68.80;;;;;;8329459;28;19920;-64
2021/05/31 18:31:08;;;;;;;;;;;19.40;54.30;;;;;;8315817;28;20353;-65
2021/05/31 18:35:19;;;;;;;;;;;19.00;54.50;;;;;;8321073;28;19944;-65
2021/05/31 18:39:19;;;;;;;;;;;18.70;58.80;;;;;;8339153;28;19917;-66
2021/05/31 18:43:20;;;;;;;;;;;18.60;56.10;;;;;;8336074;28;19913;-65
2021/05/31 18:47:20;;;;;;;;;;;18.40;73.00;;;;;;8341300;28;19913;-65
2021/05/31 18:51:21;;;;;;;;;;;18.00;57.50;;;;;;8334166;28;19921;-64
2021/05/31 18:55:22;;;;;;;;;;;17.60;58.70;;;;;;8322019;28;19921;-65
2021/05/31 18:59:22;;;;;;;;;;;17.30;60.00;;;;;;8323356;28;19921;-66
2021/05/31 19:03:23;;;;;;;;;;;17.00;61.50;;;;;;8309102;28;19928;-66
2021/05/31 19:07:23;;;;;;;;;;;16.80;62.40;;;;;;8309779;28;19966;-66
2021/05/31 19:11:24;;;;;;;;;;;16.60;65.30;;;;;;8311994;28;19948;-67
2021/05/31 19:15:25;;;;;;;;;;;16.30;66.50;;;;;;8306023;28;19925;-66
2021/05/31 19:19:25;;;;;;;;;;;16.10;68.90;;;;;;8299387;28;19921;-67
2021/05/31 19:23:26;;;;;;;;;;;15.80;69.40;;;;;;8293570;28;19961;-67
2021/05/31 19:27:27;;;;;;;;;;;15.70;71.70;;;;;;8295414;28;19913;-66
2021/05/31 19:31:27;;;;;;;;;;;15.30;74.20;;;;;;8297533;28;19956;-67
2021/05/31 19:35:28;;;;;;;;;;;15.10;75.80;;;;;;8312456;28;19913;-70
2021/05/31 19:39:29;;;;;;;;;;;14.80;78.90;;;;;;8339948;28;19924;-69
2021/05/31 19:43:30;;;;;;;;;;;14.60;81.10;;;;;;8323223;28;19927;-69
2021/05/31 19:47:30;;;;;;;;;;;14.40;84.90;;;;;;8323190;28;19924;-65
2021/05/31 19:51:32;;;;;;;;;;;14.20;87.00;;;;;;8305403;28;20383;-66
2021/05/31 19:55:38;;;;;;;;;;;13.90;90.40;;;;;;8335514;28;19917;-66
2021/05/31 19:59:43;;;;;;;;;;;13.90;92.40;;;;;;8350742;28;21294;-66
2021/05/31 20:03:45;;;;;;;;;;;13.70;94.50;;;;;;8344819;28;19916;-66
2021/05/31 20:07:45;;;;;;;;;;;13.40;96.90;;;;;;8331224;28;19917;-66
2021/05/31 20:11:46;;;;;;;;;;;13.10;99.90;;;;;;8332192;28;19913;-66
2021/05/31 20:15:47;;;;;;;;;;;13.00;99.90;;;;;;8342419;28;19920;-66
2021/05/31 20:19:47;;;;;;;;;;;12.80;99.90;;;;;;8342279;28;19955;-66
2021/05/31 20:23:48;;;;;;;;;;;12.60;99.90;;;;;;8340158;28;19920;-66
2021/05/31 20:27:49;;;;;;;;;;;12.40;99.90;;;;;;8341467;28;19914;-66
2021/05/31 20:31:50;;;;;;;;;;;12.30;99.90;;;;;;8341100;28;20073;-66
2021/05/31 20:35:51;;;;;;;;;;;12.10;99.90;;;;;;8342466;28;19913;-66
2021/05/31 20:39:51;;;;;;;;;;;11.90;99.90;;;;;;8324013;28;19917;-66
2021/05/31 20:43:54;;;;;;;;;;;11.80;99.90;;;;;;8343635;28;19912;-66
2021/05/31 20:47:55;;;;;;;;;;;11.70;99.90;;;;;;8323187;28;19910;-66
2021/05/31 20:51:59;;;;;;;;;;;11.70;99.90;;;;;;8325527;28;20415;-66
2021/05/31 20:55:59;;;;;;;;;;;11.70;99.90;;;;;;8325650;28;19913;-66
2021/05/31 21:00:00;;;;;;;;;;;11.70;99.90;;;;;;8325619;28;19913;-66
2021/05/31 21:04:02;;;;;;;;;;;11.60;99.90;;;;;;8325976;28;19945;-66
2021/05/31 21:08:12;;;;;;;;;;;11.70;99.90;;;;;;8346402;22;20029;-59
2021/05/31 21:12:12;;;;;;;;;;;11.50;99.90;;;;;;8325350;28;19967;-59
2021/05/31 21:16:14;;;;;;;;;;;11.20;99.90;;;;;;8326105;28;19960;-58
2021/05/31 21:20:16;;;;;;;;;;;11.00;99.90;;;;;;8326188;28;19909;-59
2021/05/31 21:24:17;;;;;;;;;;;10.90;99.90;;;;;;8308341;28;19936;-59
2021/05/31 21:28:18;;;;;;;;;;;10.70;99.90;;;;;;8325643;28;20023;-59
2021/05/31 21:32:19;;;;;;;;;;;10.60;99.90;;;;;;8325736;28;19909;-60
2021/05/31 21:36:20;;;;;;;;;;;10.50;99.90;;;;;;8325405;28;19913;-60
2021/05/31 21:40:21;;;;;;;;;;;10.30;99.90;;;;;;8325172;28;19913;-60
2021/05/31 21:44:22;;;;;;;;;;;10.20;99.90;;;;;;8331798;28;20407;-60
2021/05/31 21:48:23;;;;;;;;;;;10.20;99.90;;;;;;8331093;28;19920;-60
2021/05/31 21:52:23;;;;;;;;;;;10.20;99.90;;;;;;8330666;28;19956;-60
2021/05/31 21:56:24;;;;;;;;;;;10.10;99.90;;;;;;8330929;28;19979;-60
2021/05/31 22:00:32;;;;;;;;;;;10.00;99.90;;;;;;8330638;28;19939;-59
2021/05/31 22:04:34;;;;;;;;;;;9.70;99.90;;;;;;8330798;28;19950;-60
2021/05/31 22:08:35;;;;;;;;;;;9.60;99.90;;;;;;8330478;28;19921;-60
2021/05/31 22:12:36;;;;;;;;;;;9.50;99.90;;;;;;8330458;28;19995;-59
2021/05/31 22:16:59;;;;;;;;;;;9.60;99.90;;;;;;8330373;28;19913;-59
2021/05/31 22:21:00;;;;;;;;;;;9.60;99.90;;;;;;8312018;28;20366;-59
2021/05/31 22:25:03;;;;;;;;;;;9.60;99.90;;;;;;8329686;28;19913;-60
2021/05/31 22:33:22;;;;;;;;;;;9.30;99.90;;;;;;8329778;28;19959;-59
2021/05/31 22:37:23;;;;;;;;;;;9.30;99.90;;;;;;8311740;28;20211;-59
2021/05/31 22:41:38;;;;;;;;;;;9.20;99.90;;;;;;8329090;28;20393;-59
2021/05/31 22:54:31;;;;;;;;;;;8.90;99.90;;;;;;8327613;28;19944;-61
2021/05/31 23:15:42;;;;;;;;;;;8.60;99.90;;;;;;8328259;28;19935;-62
2021/05/31 23:19:42;;;;;;;;;;;8.40;99.90;;;;;;8328061;28;20335;-62
2021/05/31 23:23:43;;;;;;;;;;;8.50;99.90;;;;;;8328083;28;19910;-61
2021/05/31 23:27:44;;;;;;;;;;;8.50;99.90;;;;;;8327716;28;20379;-62
2021/05/31 23:31:45;;;;;;;;;;;8.40;99.90;;;;;;8328047;28;19917;-61
2021/05/31 23:35:46;;;;;;;;;;;8.40;99.90;;;;;;8309694;28;19913;-62
2021/05/31 23:39:48;;;;;;;;;;;8.20;99.90;;;;;;8327427;28;19940;-62
2021/05/31 23:43:48;;;;;;;;;;;8.20;99.90;;;;;;8327544;28;19959;-60
2021/05/31 23:47:49;;;;;;;;;;;8.00;99.90;;;;;;8326258;28;19913;-62
2021/05/31 23:51:49;;;;;;;;;;;8.10;99.90;;;;;;8309327;28;20358;-62
2021/05/31 23:55:49;;;;;;;;;;;8.20;99.90;;;;;;8308922;28;19920;-62
2021/05/31 23:59:50;;;;;;;;;;;8.20;99.90;;;;;;8327207;28;20417;-61
